sensor_id;sensor_type;location;lat;lon;timestamp;P1;durP1;ratioP1;P2;durP2;ratioP2
16436;SDS011;8328;52.206;21.006;2023-03-01T00:02:25;69.10;;;32.53;;
16436;SDS011;8328;52.206;21.006;2023-03-01T00:04:51;65.30;;;31.17;;
16436;SDS011;8328;52.206;21.006;2023-03-01T00:07:17;63.65;;;32.03;;
16436;SDS011;8328;52.206;21.006;2023-03-01T00:09:42;66.20;;;31.90;;
16436;SDS011;8328;52.206;21.006;2023-03-01T00:12:10;59.72;;;32.47;;
16436;SDS011;8328;52.206;21.006;2023-03-01T00:14:38;67.15;;;33.70;;
16436;SDS011;8328;52.206;21.006;2023-03-01T00:17:05;66.40;;;32.67;;
16436;SDS011;8328;52.206;21.006;2023-03-01T00:19:31;65.63;;;32.80;;
16436;SDS011;8328;52.206;21.006;2023-03-01T00:21:57;65.47;;;33.72;;
16436;SDS011;8328;52.206;21.006;2023-03-01T00:24:23;65.73;;;32.93;;
16436;SDS011;8328;52.206;21.006;2023-03-01T00:26:52;69.30;;;33.53;;
16436;SDS011;8328;52.206;21.006;2023-03-01T00:29:23;64.72;;;33.40;;
16436;SDS011;8328;52.206;21.006;2023-03-01T00:31:49;62.33;;;31.92;;
16436;SDS011;8328;52.206;21.006;2023-03-01T00:34:16;57.67;;;29.23;;
16436;SDS011;8328;52.206;21.006;2023-03-01T00:36:41;64.10;;;32.43;;
16436;SDS011;8328;52.206;21.006;2023-03-01T00:39:09;69.40;;;34.17;;
16436;SDS011;8328;52.206;21.006;2023-03-01T00:41:38;68.28;;;32.60;;
16436;SDS011;8328;52.206;21.006;2023-03-01T00:44:05;58.90;;;33.08;;
16436;SDS011;8328;52.206;21.006;2023-03-01T00:46:31;61.40;;;32.45;;
16436;SDS011;8328;52.206;21.006;2023-03-01T00:48:57;64.13;;;32.43;;
16436;SDS011;8328;52.206;21.006;2023-03-01T00:51:27;62.63;;;31.33;;
16436;SDS011;8328;52.206;21.006;2023-03-01T00:53:57;58.03;;;26.00;;
16436;SDS011;8328;52.206;21.006;2023-03-01T00:56:24;57.08;;;31.73;;
16436;SDS011;8328;52.206;21.006;2023-03-01T00:58:52;56.67;;;29.92;;
16436;SDS011;8328;52.206;21.006;2023-03-01T01:01:21;65.07;;;32.13;;
16436;SDS011;8328;52.206;21.006;2023-03-01T01:06:27;56.28;;;30.67;;
16436;SDS011;8328;52.206;21.006;2023-03-01T01:08:55;64.10;;;31.73;;
16436;SDS011;8328;52.206;21.006;2023-03-01T01:11:22;60.33;;;31.73;;
16436;SDS011;8328;52.206;21.006;2023-03-01T01:13:51;60.80;;;29.20;;
16436;SDS011;8328;52.206;21.006;2023-03-01T01:16:18;58.50;;;29.88;;
16436;SDS011;8328;52.206;21.006;2023-03-01T01:18:47;58.65;;;31.38;;
16436;SDS011;8328;52.206;21.006;2023-03-01T01:21:14;61.60;;;30.33;;
16436;SDS011;8328;52.206;21.006;2023-03-01T01:23:44;57.20;;;29.55;;
16436;SDS011;8328;52.206;21.006;2023-03-01T01:26:30;57.25;;;29.02;;
16436;SDS011;8328;52.206;21.006;2023-03-01T01:28:58;53.30;;;23.95;;
16436;SDS011;8328;52.206;21.006;2023-03-01T01:31:26;63.15;;;30.63;;
16436;SDS011;8328;52.206;21.006;2023-03-01T01:33:53;61.00;;;31.45;;
16436;SDS011;8328;52.206;21.006;2023-03-01T01:36:19;58.33;;;29.35;;
16436;SDS011;8328;52.206;21.006;2023-03-01T01:38:46;56.05;;;30.27;;
16436;SDS011;8328;52.206;21.006;2023-03-01T01:41:12;60.40;;;28.80;;
16436;SDS011;8328;52.206;21.006;2023-03-01T01:43:43;55.00;;;28.42;;
16436;SDS011;8328;52.206;21.006;2023-03-01T01:46:30;59.72;;;31.08;;
16436;SDS011;8328;52.206;21.006;2023-03-01T01:49:02;56.63;;;28.92;;
16436;SDS011;8328;52.206;21.006;2023-03-01T01:51:41;58.33;;;28.83;;
16436;SDS011;8328;52.206;21.006;2023-03-01T01:54:18;54.83;;;27.30;;
16436;SDS011;8328;52.206;21.006;2023-03-01T01:56:51;56.10;;;27.48;;
16436;SDS011;8328;52.206;21.006;2023-03-01T01:59:21;57.05;;;29.58;;
16436;SDS011;8328;52.206;21.006;2023-03-01T02:01:50;56.17;;;27.20;;
16436;SDS011;8328;52.206;21.006;2023-03-01T02:04:17;55.03;;;27.83;;
16436;SDS011;8328;52.206;21.006;2023-03-01T02:06:48;58.70;;;29.13;;
16436;SDS011;8328;52.206;21.006;2023-03-01T02:09:21;55.38;;;29.13;;
16436;SDS011;8328;52.206;21.006;2023-03-01T02:11:49;56.17;;;29.58;;
16436;SDS011;8328;52.206;21.006;2023-03-01T02:14:16;59.45;;;29.75;;
16436;SDS011;8328;52.206;21.006;2023-03-01T02:16:43;59.53;;;28.60;;
16436;SDS011;8328;52.206;21.006;2023-03-01T02:19:10;60.47;;;30.88;;
16436;SDS011;8328;52.206;21.006;2023-03-01T02:21:45;63.65;;;29.90;;
16436;SDS011;8328;52.206;21.006;2023-03-01T02:24:21;59.90;;;30.25;;
16436;SDS011;8328;52.206;21.006;2023-03-01T02:26:56;52.13;;;27.08;;
16436;SDS011;8328;52.206;21.006;2023-03-01T02:29:23;56.55;;;28.65;;
16436;SDS011;8328;52.206;21.006;2023-03-01T02:31:50;57.15;;;29.48;;
16436;SDS011;8328;52.206;21.006;2023-03-01T02:34:20;59.60;;;28.70;;
16436;SDS011;8328;52.206;21.006;2023-03-01T02:39:23;61.75;;;30.63;;
16436;SDS011;8328;52.206;21.006;2023-03-01T02:41:59;60.25;;;30.02;;
16436;SDS011;8328;52.206;21.006;2023-03-01T02:44:29;60.33;;;31.13;;
16436;SDS011;8328;52.206;21.006;2023-03-01T02:46:56;62.60;;;32.03;;
16436;SDS011;8328;52.206;21.006;2023-03-01T02:49:27;54.33;;;26.98;;
16436;SDS011;8328;52.206;21.006;2023-03-01T02:54:39;59.08;;;30.52;;
16436;SDS011;8328;52.206;21.006;2023-03-01T02:57:19;56.78;;;30.45;;
16436;SDS011;8328;52.206;21.006;2023-03-01T02:59:47;61.20;;;30.10;;
16436;SDS011;8328;52.206;21.006;2023-03-01T03:02:21;67.25;;;30.90;;
16436;SDS011;8328;52.206;21.006;2023-03-01T03:05:10;60.45;;;29.58;;
16436;SDS011;8328;52.206;21.006;2023-03-01T03:07:39;61.05;;;29.73;;
16436;SDS011;8328;52.206;21.006;2023-03-01T03:10:07;59.35;;;26.00;;
16436;SDS011;8328;52.206;21.006;2023-03-01T03:12:36;53.45;;;25.50;;
16436;SDS011;8328;52.206;21.006;2023-03-01T03:15:03;67.55;;;29.52;;
16436;SDS011;8328;52.206;21.006;2023-03-01T03:17:34;65.30;;;30.30;;
16436;SDS011;8328;52.206;21.006;2023-03-01T03:20:03;60.15;;;29.15;;
16436;SDS011;8328;52.206;21.006;2023-03-01T03:22:29;64.38;;;31.50;;
16436;SDS011;8328;52.206;21.006;2023-03-01T03:24:56;58.65;;;30.02;;
16436;SDS011;8328;52.206;21.006;2023-03-01T03:27:21;55.37;;;29.97;;
16436;SDS011;8328;52.206;21.006;2023-03-01T03:29:47;57.63;;;28.27;;
16436;SDS011;8328;52.206;21.006;2023-03-01T03:32:13;61.87;;;30.33;;
16436;SDS011;8328;52.206;21.006;2023-03-01T03:34:38;58.33;;;30.10;;
16436;SDS011;8328;52.206;21.006;2023-03-01T03:37:04;55.80;;;28.83;;
16436;SDS011;8328;52.206;21.006;2023-03-01T03:39:51;59.67;;;29.27;;
16436;SDS011;8328;52.206;21.006;2023-03-01T03:42:20;56.03;;;27.23;;
16436;SDS011;8328;52.206;21.006;2023-03-01T03:44:47;58.83;;;28.77;;
16436;SDS011;8328;52.206;21.006;2023-03-01T03:47:13;58.10;;;29.83;;
16436;SDS011;8328;52.206;21.006;2023-03-01T03:49:39;55.65;;;29.38;;
16436;SDS011;8328;52.206;21.006;2023-03-01T03:52:05;55.33;;;25.53;;
16436;SDS011;8328;52.206;21.006;2023-03-01T03:54:38;59.92;;;29.33;;
16436;SDS011;8328;52.206;21.006;2023-03-01T03:57:05;55.70;;;30.00;;
16436;SDS011;8328;52.206;21.006;2023-03-01T03:59:31;62.83;;;30.38;;
16436;SDS011;8328;52.206;21.006;2023-03-01T04:01:57;56.77;;;29.27;;
16436;SDS011;8328;52.206;21.006;2023-03-01T04:04:23;59.00;;;29.07;;
16436;SDS011;8328;52.206;21.006;2023-03-01T04:06:49;37.70;;;18.80;;
16436;SDS011;8328;52.206;21.006;2023-03-01T04:09:15;59.87;;;28.73;;
16436;SDS011;8328;52.206;21.006;2023-03-01T04:11:40;50.00;;;24.03;;
16436;SDS011;8328;52.206;21.006;2023-03-01T04:14:06;60.97;;;29.03;;
16436;SDS011;8328;52.206;21.006;2023-03-01T04:16:32;53.60;;;28.60;;
16436;SDS011;8328;52.206;21.006;2023-03-01T04:18:57;64.33;;;31.63;;
16436;SDS011;8328;52.206;21.006;2023-03-01T04:21:24;59.30;;;27.33;;
16436;SDS011;8328;52.206;21.006;2023-03-01T04:23:50;54.77;;;27.10;;
16436;SDS011;8328;52.206;21.006;2023-03-01T04:26:18;57.75;;;29.00;;
16436;SDS011;8328;52.206;21.006;2023-03-01T04:28:45;58.25;;;30.10;;
16436;SDS011;8328;52.206;21.006;2023-03-01T04:31:14;57.25;;;28.58;;
16436;SDS011;8328;52.206;21.006;2023-03-01T04:36:13;58.22;;;31.30;;
16436;SDS011;8328;52.206;21.006;2023-03-01T04:38:40;46.72;;;23.27;;
16436;SDS011;8328;52.206;21.006;2023-03-01T04:41:08;60.63;;;30.98;;
16436;SDS011;8328;52.206;21.006;2023-03-01T04:43:36;57.33;;;27.77;;
16436;SDS011;8328;52.206;21.006;2023-03-01T04:46:03;52.83;;;27.58;;
16436;SDS011;8328;52.206;21.006;2023-03-01T04:48:32;56.63;;;26.58;;
16436;SDS011;8328;52.206;21.006;2023-03-01T04:50:58;59.22;;;26.73;;
16436;SDS011;8328;52.206;21.006;2023-03-01T04:53:25;64.55;;;30.77;;
16436;SDS011;8328;52.206;21.006;2023-03-01T04:55:51;48.78;;;24.25;;
16436;SDS011;8328;52.206;21.006;2023-03-01T04:58:18;46.30;;;22.80;;
16436;SDS011;8328;52.206;21.006;2023-03-01T05:00:44;63.33;;;31.53;;
16436;SDS011;8328;52.206;21.006;2023-03-01T05:03:10;57.90;;;27.07;;
16436;SDS011;8328;52.206;21.006;2023-03-01T05:05:36;58.77;;;29.27;;
16436;SDS011;8328;52.206;21.006;2023-03-01T05:08:04;66.40;;;31.38;;
16436;SDS011;8328;52.206;21.006;2023-03-01T05:10:31;56.85;;;28.77;;
16436;SDS011;8328;52.206;21.006;2023-03-01T05:13:00;55.10;;;28.30;;
16436;SDS011;8328;52.206;21.006;2023-03-01T05:15:29;58.15;;;29.48;;
16436;SDS011;8328;52.206;21.006;2023-03-01T05:17:57;60.78;;;30.67;;
16436;SDS011;8328;52.206;21.006;2023-03-01T05:20:24;58.80;;;29.15;;
16436;SDS011;8328;52.206;21.006;2023-03-01T05:22:55;59.70;;;26.95;;
16436;SDS011;8328;52.206;21.006;2023-03-01T05:25:24;56.72;;;29.38;;
16436;SDS011;8328;52.206;21.006;2023-03-01T05:27:51;63.53;;;29.83;;
16436;SDS011;8328;52.206;21.006;2023-03-01T05:30:17;53.97;;;24.80;;
16436;SDS011;8328;52.206;21.006;2023-03-01T05:32:45;54.13;;;29.10;;
16436;SDS011;8328;52.206;21.006;2023-03-01T05:35:13;53.17;;;29.50;;
16436;SDS011;8328;52.206;21.006;2023-03-01T05:37:41;55.42;;;29.45;;
16436;SDS011;8328;52.206;21.006;2023-03-01T05:40:11;60.90;;;29.02;;
16436;SDS011;8328;52.206;21.006;2023-03-01T05:42:42;53.55;;;27.10;;
16436;SDS011;8328;52.206;21.006;2023-03-01T05:45:09;53.72;;;26.95;;
16436;SDS011;8328;52.206;21.006;2023-03-01T05:47:37;58.80;;;28.23;;
16436;SDS011;8328;52.206;21.006;2023-03-01T05:50:09;38.03;;;18.45;;
16436;SDS011;8328;52.206;21.006;2023-03-01T05:52:35;55.88;;;27.85;;
16436;SDS011;8328;52.206;21.006;2023-03-01T05:55:01;61.93;;;29.93;;
16436;SDS011;8328;52.206;21.006;2023-03-01T05:57:27;58.57;;;28.87;;
16436;SDS011;8328;52.206;21.006;2023-03-01T05:59:54;51.60;;;26.33;;
16436;SDS011;8328;52.206;21.006;2023-03-01T06:02:19;55.87;;;29.27;;
16436;SDS011;8328;52.206;21.006;2023-03-01T06:04:45;55.37;;;29.67;;
16436;SDS011;8328;52.206;21.006;2023-03-01T06:07:11;50.07;;;20.20;;
16436;SDS011;8328;52.206;21.006;2023-03-01T06:09:37;54.73;;;28.73;;
16436;SDS011;8328;52.206;21.006;2023-03-01T06:12:02;50.80;;;27.70;;
16436;SDS011;8328;52.206;21.006;2023-03-01T06:14:30;49.22;;;25.52;;
16436;SDS011;8328;52.206;21.006;2023-03-01T06:16:57;54.28;;;26.42;;
16436;SDS011;8328;52.206;21.006;2023-03-01T06:19:23;48.00;;;26.08;;
16436;SDS011;8328;52.206;21.006;2023-03-01T06:21:49;53.50;;;27.47;;
16436;SDS011;8328;52.206;21.006;2023-03-01T06:24:15;51.55;;;28.38;;
16436;SDS011;8328;52.206;21.006;2023-03-01T06:26:40;53.47;;;28.20;;
16436;SDS011;8328;52.206;21.006;2023-03-01T06:29:06;50.17;;;27.30;;
16436;SDS011;8328;52.206;21.006;2023-03-01T06:31:33;49.97;;;25.27;;
16436;SDS011;8328;52.206;21.006;2023-03-01T06:33:59;51.30;;;25.23;;
16436;SDS011;8328;52.206;21.006;2023-03-01T06:36:25;50.57;;;24.30;;
16436;SDS011;8328;52.206;21.006;2023-03-01T06:38:51;52.03;;;26.37;;
16436;SDS011;8328;52.206;21.006;2023-03-01T06:41:17;53.10;;;28.53;;
16436;SDS011;8328;52.206;21.006;2023-03-01T06:43:43;53.93;;;26.70;;
16436;SDS011;8328;52.206;21.006;2023-03-01T06:46:08;56.00;;;27.37;;
16436;SDS011;8328;52.206;21.006;2023-03-01T06:48:34;43.13;;;22.47;;
16436;SDS011;8328;52.206;21.006;2023-03-01T06:51:00;48.85;;;25.77;;
16436;SDS011;8328;52.206;21.006;2023-03-01T06:53:27;48.27;;;26.13;;
16436;SDS011;8328;52.206;21.006;2023-03-01T06:55:54;51.55;;;27.63;;
16436;SDS011;8328;52.206;21.006;2023-03-01T06:58:20;50.47;;;25.65;;
16436;SDS011;8328;52.206;21.006;2023-03-01T07:00:46;50.10;;;26.47;;
16436;SDS011;8328;52.206;21.006;2023-03-01T07:03:12;42.27;;;22.20;;
16436;SDS011;8328;52.206;21.006;2023-03-01T07:05:38;55.40;;;27.70;;
16436;SDS011;8328;52.206;21.006;2023-03-01T07:08:03;54.07;;;26.07;;
16436;SDS011;8328;52.206;21.006;2023-03-01T07:10:29;48.20;;;22.47;;
16436;SDS011;8328;52.206;21.006;2023-03-01T07:12:56;50.97;;;28.03;;
16436;SDS011;8328;52.206;21.006;2023-03-01T07:15:22;53.17;;;25.98;;
16436;SDS011;8328;52.206;21.006;2023-03-01T07:17:49;55.50;;;28.73;;
16436;SDS011;8328;52.206;21.006;2023-03-01T07:20:16;51.05;;;27.92;;
16436;SDS011;8328;52.206;21.006;2023-03-01T07:22:43;51.85;;;27.98;;
16436;SDS011;8328;52.206;21.006;2023-03-01T07:25:10;55.43;;;30.90;;
16436;SDS011;8328;52.206;21.006;2023-03-01T07:27:37;48.37;;;25.87;;
16436;SDS011;8328;52.206;21.006;2023-03-01T07:30:03;49.40;;;21.73;;
16436;SDS011;8328;52.206;21.006;2023-03-01T07:32:29;43.37;;;24.73;;
16436;SDS011;8328;52.206;21.006;2023-03-01T07:34:55;47.70;;;24.93;;
16436;SDS011;8328;52.206;21.006;2023-03-01T07:37:21;42.93;;;24.23;;
16436;SDS011;8328;52.206;21.006;2023-03-01T07:39:47;41.83;;;22.03;;
16436;SDS011;8328;52.206;21.006;2023-03-01T07:42:13;42.97;;;23.60;;
16436;SDS011;8328;52.206;21.006;2023-03-01T07:44:38;43.13;;;23.13;;
16436;SDS011;8328;52.206;21.006;2023-03-01T07:47:04;42.53;;;24.10;;
16436;SDS011;8328;52.206;21.006;2023-03-01T07:49:31;41.57;;;23.33;;
16436;SDS011;8328;52.206;21.006;2023-03-01T07:51:56;47.53;;;23.80;;
16436;SDS011;8328;52.206;21.006;2023-03-01T07:54:22;40.60;;;22.90;;
16436;SDS011;8328;52.206;21.006;2023-03-01T07:56:48;43.23;;;23.37;;
16436;SDS011;8328;52.206;21.006;2023-03-01T07:59:14;39.20;;;21.70;;
16436;SDS011;8328;52.206;21.006;2023-03-01T08:01:40;37.83;;;21.87;;
16436;SDS011;8328;52.206;21.006;2023-03-01T08:04:07;35.20;;;20.60;;
16436;SDS011;8328;52.206;21.006;2023-03-01T08:06:34;31.70;;;17.97;;
16436;SDS011;8328;52.206;21.006;2023-03-01T08:09:00;39.23;;;21.93;;
16436;SDS011;8328;52.206;21.006;2023-03-01T08:11:27;45.80;;;20.37;;
16436;SDS011;8328;52.206;21.006;2023-03-01T08:13:53;38.93;;;21.87;;
16436;SDS011;8328;52.206;21.006;2023-03-01T08:16:19;39.00;;;21.60;;
16436;SDS011;8328;52.206;21.006;2023-03-01T08:18:45;35.00;;;20.60;;
16436;SDS011;8328;52.206;21.006;2023-03-01T08:21:15;30.97;;;17.40;;
16436;SDS011;8328;52.206;21.006;2023-03-01T08:23:43;34.07;;;19.33;;
16436;SDS011;8328;52.206;21.006;2023-03-01T08:28:39;38.03;;;19.20;;
16436;SDS011;8328;52.206;21.006;2023-03-01T08:31:18;29.57;;;17.63;;
16436;SDS011;8328;52.206;21.006;2023-03-01T08:33:44;29.23;;;16.70;;
16436;SDS011;8328;52.206;21.006;2023-03-01T08:36:15;33.93;;;19.13;;
16436;SDS011;8328;52.206;21.006;2023-03-01T08:38:41;27.90;;;16.50;;
16436;SDS011;8328;52.206;21.006;2023-03-01T08:41:08;36.50;;;17.57;;
16436;SDS011;8328;52.206;21.006;2023-03-01T08:43:33;35.17;;;20.03;;
16436;SDS011;8328;52.206;21.006;2023-03-01T08:45:59;29.67;;;17.37;;
16436;SDS011;8328;52.206;21.006;2023-03-01T08:48:25;32.07;;;20.03;;
16436;SDS011;8328;52.206;21.006;2023-03-01T08:50:52;35.83;;;20.47;;
16436;SDS011;8328;52.206;21.006;2023-03-01T08:53:18;37.37;;;20.57;;
16436;SDS011;8328;52.206;21.006;2023-03-01T08:55:44;34.90;;;20.00;;
16436;SDS011;8328;52.206;21.006;2023-03-01T08:58:10;32.00;;;19.07;;
16436;SDS011;8328;52.206;21.006;2023-03-01T09:00:36;32.83;;;19.73;;
16436;SDS011;8328;52.206;21.006;2023-03-01T09:03:02;34.10;;;20.40;;
16436;SDS011;8328;52.206;21.006;2023-03-01T09:05:31;33.33;;;18.23;;
16436;SDS011;8328;52.206;21.006;2023-03-01T09:07:58;32.33;;;19.40;;
16436;SDS011;8328;52.206;21.006;2023-03-01T09:10:23;31.00;;;18.07;;
16436;SDS011;8328;52.206;21.006;2023-03-01T09:12:50;31.17;;;19.23;;
16436;SDS011;8328;52.206;21.006;2023-03-01T09:15:16;34.10;;;19.00;;
16436;SDS011;8328;52.206;21.006;2023-03-01T09:17:42;28.03;;;17.37;;
16436;SDS011;8328;52.206;21.006;2023-03-01T09:20:09;30.33;;;18.63;;
16436;SDS011;8328;52.206;21.006;2023-03-01T09:22:35;33.03;;;18.87;;
16436;SDS011;8328;52.206;21.006;2023-03-01T09:25:01;31.87;;;18.47;;
16436;SDS011;8328;52.206;21.006;2023-03-01T09:27:27;32.13;;;17.70;;
16436;SDS011;8328;52.206;21.006;2023-03-01T09:29:52;30.53;;;17.80;;
16436;SDS011;8328;52.206;21.006;2023-03-01T09:32:21;29.90;;;18.13;;
16436;SDS011;8328;52.206;21.006;2023-03-01T09:34:47;33.73;;;18.73;;
16436;SDS011;8328;52.206;21.006;2023-03-01T09:37:31;30.43;;;18.13;;
16436;SDS011;8328;52.206;21.006;2023-03-01T09:39:58;29.13;;;17.00;;
16436;SDS011;8328;52.206;21.006;2023-03-01T09:42:24;31.70;;;17.73;;
16436;SDS011;8328;52.206;21.006;2023-03-01T09:44:55;29.83;;;16.93;;
16436;SDS011;8328;52.206;21.006;2023-03-01T09:47:27;28.57;;;16.37;;
16436;SDS011;8328;52.206;21.006;2023-03-01T09:52:27;26.13;;;15.50;;
16436;SDS011;8328;52.206;21.006;2023-03-01T09:55:17;23.30;;;14.77;;
16436;SDS011;8328;52.206;21.006;2023-03-01T09:58:01;28.23;;;14.10;;
16436;SDS011;8328;52.206;21.006;2023-03-01T10:00:51;26.80;;;14.63;;
16436;SDS011;8328;52.206;21.006;2023-03-01T10:06:24;25.77;;;14.93;;
16436;SDS011;8328;52.206;21.006;2023-03-01T10:09:00;25.83;;;15.10;;
16436;SDS011;8328;52.206;21.006;2023-03-01T10:11:40;25.20;;;13.23;;
16436;SDS011;8328;52.206;21.006;2023-03-01T10:14:24;21.30;;;11.20;;
16436;SDS011;8328;52.206;21.006;2023-03-01T10:16:57;23.87;;;13.40;;
16436;SDS011;8328;52.206;21.006;2023-03-01T10:19:31;23.23;;;13.63;;
16436;SDS011;8328;52.206;21.006;2023-03-01T10:22:00;25.80;;;14.70;;
16436;SDS011;8328;52.206;21.006;2023-03-01T10:24:31;23.83;;;13.97;;
16436;SDS011;8328;52.206;21.006;2023-03-01T10:33:04;24.27;;;13.90;;
16436;SDS011;8328;52.206;21.006;2023-03-01T10:35:40;21.07;;;11.37;;
16436;SDS011;8328;52.206;21.006;2023-03-01T10:40:35;24.63;;;13.70;;
16436;SDS011;8328;52.206;21.006;2023-03-01T10:43:14;23.17;;;13.53;;
16436;SDS011;8328;52.206;21.006;2023-03-01T10:45:40;21.37;;;13.07;;
16436;SDS011;8328;52.206;21.006;2023-03-01T10:48:15;20.87;;;12.40;;
16436;SDS011;8328;52.206;21.006;2023-03-01T10:50:47;21.07;;;11.57;;
16436;SDS011;8328;52.206;21.006;2023-03-01T10:53:28;18.30;;;11.30;;
16436;SDS011;8328;52.206;21.006;2023-03-01T10:56:12;20.97;;;12.03;;
16436;SDS011;8328;52.206;21.006;2023-03-01T10:58:40;21.67;;;11.80;;
16436;SDS011;8328;52.206;21.006;2023-03-01T11:01:27;15.73;;;10.53;;
16436;SDS011;8328;52.206;21.006;2023-03-01T11:06:35;14.40;;;10.30;;
16436;SDS011;8328;52.206;21.006;2023-03-01T11:09:22;18.60;;;11.00;;
16436;SDS011;8328;52.206;21.006;2023-03-01T11:11:53;18.40;;;10.83;;
16436;SDS011;8328;52.206;21.006;2023-03-01T11:14:24;19.50;;;11.13;;
16436;SDS011;8328;52.206;21.006;2023-03-01T11:17:12;14.60;;;9.93;;
16436;SDS011;8328;52.206;21.006;2023-03-01T11:20:02;14.70;;;9.57;;
16436;SDS011;8328;52.206;21.006;2023-03-01T11:22:31;13.87;;;9.93;;
16436;SDS011;8328;52.206;21.006;2023-03-01T11:25:02;17.10;;;9.80;;
16436;SDS011;8328;52.206;21.006;2023-03-01T11:27:31;15.40;;;9.80;;
16436;SDS011;8328;52.206;21.006;2023-03-01T11:30:13;14.30;;;8.90;;
16436;SDS011;8328;52.206;21.006;2023-03-01T11:35:32;15.10;;;9.90;;
16436;SDS011;8328;52.206;21.006;2023-03-01T11:40:37;15.67;;;9.63;;
16436;SDS011;8328;52.206;21.006;2023-03-01T11:48:25;15.57;;;9.90;;
16436;SDS011;8328;52.206;21.006;2023-03-01T11:51:19;14.37;;;9.70;;
16436;SDS011;8328;52.206;21.006;2023-03-01T11:54:09;13.43;;;9.40;;
16436;SDS011;8328;52.206;21.006;2023-03-01T11:56:55;14.27;;;9.73;;
16436;SDS011;8328;52.206;21.006;2023-03-01T12:07:53;14.80;;;10.03;;
16436;SDS011;8328;52.206;21.006;2023-03-01T12:13:27;16.13;;;10.30;;
16436;SDS011;8328;52.206;21.006;2023-03-01T12:22:09;13.03;;;10.27;;
16436;SDS011;8328;52.206;21.006;2023-03-01T12:43:55;15.93;;;10.07;;
16436;SDS011;8328;52.206;21.006;2023-03-01T12:46:39;18.63;;;10.27;;
16436;SDS011;8328;52.206;21.006;2023-03-01T12:49:27;16.13;;;10.23;;
16436;SDS011;8328;52.206;21.006;2023-03-01T12:52:02;17.13;;;10.10;;
16436;SDS011;8328;52.206;21.006;2023-03-01T12:54:47;14.17;;;9.40;;
16436;SDS011;8328;52.206;21.006;2023-03-01T12:57:27;17.87;;;10.33;;
16436;SDS011;8328;52.206;21.006;2023-03-01T13:08:40;15.83;;;9.83;;
16436;SDS011;8328;52.206;21.006;2023-03-01T13:11:33;16.20;;;10.20;;
16436;SDS011;8328;52.206;21.006;2023-03-01T13:17:28;17.40;;;9.63;;
16436;SDS011;8328;52.206;21.006;2023-03-01T13:19:57;15.93;;;10.53;;
16436;SDS011;8328;52.206;21.006;2023-03-01T13:22:25;16.23;;;9.93;;
16436;SDS011;8328;52.206;21.006;2023-03-01T13:25:01;15.67;;;9.73;;
16436;SDS011;8328;52.206;21.006;2023-03-01T13:27:36;17.00;;;10.57;;
16436;SDS011;8328;52.206;21.006;2023-03-01T13:30:02;18.07;;;10.23;;
16436;SDS011;8328;52.206;21.006;2023-03-01T13:32:34;14.77;;;9.90;;
16436;SDS011;8328;52.206;21.006;2023-03-01T13:37:36;16.27;;;9.07;;
16436;SDS011;8328;52.206;21.006;2023-03-01T13:40:05;16.50;;;9.77;;
16436;SDS011;8328;52.206;21.006;2023-03-01T13:43:28;16.93;;;11.37;;
16436;SDS011;8328;52.206;21.006;2023-03-01T13:45:56;18.40;;;10.43;;
16436;SDS011;8328;52.206;21.006;2023-03-01T13:48:25;16.33;;;10.70;;
16436;SDS011;8328;52.206;21.006;2023-03-01T13:51:00;18.17;;;11.33;;
16436;SDS011;8328;52.206;21.006;2023-03-01T13:53:33;14.77;;;10.53;;
16436;SDS011;8328;52.206;21.006;2023-03-01T13:56:12;19.10;;;13.13;;
16436;SDS011;8328;52.206;21.006;2023-03-01T13:58:49;15.53;;;10.30;;
16436;SDS011;8328;52.206;21.006;2023-03-01T14:01:23;16.67;;;10.40;;
16436;SDS011;8328;52.206;21.006;2023-03-01T14:03:51;16.53;;;10.77;;
16436;SDS011;8328;52.206;21.006;2023-03-01T14:06:22;16.30;;;10.27;;
16436;SDS011;8328;52.206;21.006;2023-03-01T14:08:51;17.60;;;10.70;;
16436;SDS011;8328;52.206;21.006;2023-03-01T14:14:17;13.73;;;9.20;;
16436;SDS011;8328;52.206;21.006;2023-03-01T14:17:05;15.10;;;8.60;;
16436;SDS011;8328;52.206;21.006;2023-03-01T14:19:43;18.33;;;11.60;;
16436;SDS011;8328;52.206;21.006;2023-03-01T14:24:47;17.90;;;11.43;;
16436;SDS011;8328;52.206;21.006;2023-03-01T14:27:19;17.97;;;11.30;;
16436;SDS011;8328;52.206;21.006;2023-03-01T14:29:53;16.70;;;10.73;;
16436;SDS011;8328;52.206;21.006;2023-03-01T14:32:22;15.27;;;10.03;;
16436;SDS011;8328;52.206;21.006;2023-03-01T14:34:51;17.07;;;11.17;;
16436;SDS011;8328;52.206;21.006;2023-03-01T14:37:31;18.47;;;11.17;;
16436;SDS011;8328;52.206;21.006;2023-03-01T14:39:58;17.30;;;11.20;;
16436;SDS011;8328;52.206;21.006;2023-03-01T14:42:27;14.90;;;10.30;;
16436;SDS011;8328;52.206;21.006;2023-03-01T14:44:56;18.13;;;11.53;;
16436;SDS011;8328;52.206;21.006;2023-03-01T14:47:32;15.83;;;11.40;;
16436;SDS011;8328;52.206;21.006;2023-03-01T14:50:00;14.03;;;10.83;;
16436;SDS011;8328;52.206;21.006;2023-03-01T14:52:36;16.47;;;11.33;;
16436;SDS011;8328;52.206;21.006;2023-03-01T14:55:05;14.67;;;10.67;;
16436;SDS011;8328;52.206;21.006;2023-03-01T14:57:43;16.73;;;11.07;;
16436;SDS011;8328;52.206;21.006;2023-03-01T15:00:16;18.63;;;11.30;;
16436;SDS011;8328;52.206;21.006;2023-03-01T15:02:42;14.30;;;10.97;;
16436;SDS011;8328;52.206;21.006;2023-03-01T15:05:09;18.87;;;11.73;;
16436;SDS011;8328;52.206;21.006;2023-03-01T15:07:37;17.50;;;10.83;;
16436;SDS011;8328;52.206;21.006;2023-03-01T15:10:05;19.37;;;10.53;;
16436;SDS011;8328;52.206;21.006;2023-03-01T15:12:40;16.40;;;11.30;;
16436;SDS011;8328;52.206;21.006;2023-03-01T15:18:18;17.73;;;10.13;;
16436;SDS011;8328;52.206;21.006;2023-03-01T15:20:47;14.57;;;10.57;;
16436;SDS011;8328;52.206;21.006;2023-03-01T15:23:17;16.80;;;10.77;;
16436;SDS011;8328;52.206;21.006;2023-03-01T15:25:44;18.03;;;11.50;;
16436;SDS011;8328;52.206;21.006;2023-03-01T15:28:12;18.23;;;11.40;;
16436;SDS011;8328;52.206;21.006;2023-03-01T15:30:45;19.03;;;10.67;;
16436;SDS011;8328;52.206;21.006;2023-03-01T15:35:55;17.33;;;12.07;;
16436;SDS011;8328;52.206;21.006;2023-03-01T15:41:30;19.90;;;11.93;;
16436;SDS011;8328;52.206;21.006;2023-03-01T15:44:24;20.40;;;12.30;;
16436;SDS011;8328;52.206;21.006;2023-03-01T15:46:54;21.30;;;11.77;;
16436;SDS011;8328;52.206;21.006;2023-03-01T15:49:38;21.67;;;12.07;;
16436;SDS011;8328;52.206;21.006;2023-03-01T15:52:10;19.50;;;10.83;;
16436;SDS011;8328;52.206;21.006;2023-03-01T15:54:56;20.30;;;12.17;;
16436;SDS011;8328;52.206;21.006;2023-03-01T15:57:23;23.77;;;12.63;;
16436;SDS011;8328;52.206;21.006;2023-03-01T15:59:48;20.27;;;12.00;;
16436;SDS011;8328;52.206;21.006;2023-03-01T16:02:14;18.50;;;11.33;;
16436;SDS011;8328;52.206;21.006;2023-03-01T16:04:40;23.97;;;11.90;;
16436;SDS011;8328;52.206;21.006;2023-03-01T16:07:06;24.87;;;12.50;;
16436;SDS011;8328;52.206;21.006;2023-03-01T16:09:34;21.80;;;12.53;;
16436;SDS011;8328;52.206;21.006;2023-03-01T16:12:01;22.23;;;12.50;;
16436;SDS011;8328;52.206;21.006;2023-03-01T16:14:27;20.90;;;12.13;;
16436;SDS011;8328;52.206;21.006;2023-03-01T16:16:54;23.23;;;12.57;;
16436;SDS011;8328;52.206;21.006;2023-03-01T16:19:20;21.77;;;12.33;;
16436;SDS011;8328;52.206;21.006;2023-03-01T16:21:46;23.30;;;12.57;;
16436;SDS011;8328;52.206;21.006;2023-03-01T16:24:13;20.77;;;13.23;;
16436;SDS011;8328;52.206;21.006;2023-03-01T16:26:40;19.00;;;11.10;;